Time;durP1;ratioP1;P1;durP2;ratioP2;P2;SDS_P1;SDS_P2;PMS_P1;PMS_P2;Temp;Humidity;BMP_temperature;BMP_pressure;BME280_temperature;BME280_humidity;BME280_pressure;Samples;Min_cycle;Max_cycle;Signal;HPM_P1;HPM_P2
2022/05/30 00:00:36;;;;;;;4.63;4.10;;;;;;;;;;5056197;28;20447;-61
2022/05/30 00:03:02;;;;;;;5.70;4.50;;;;;;;;;;5055810;28;20631;-60
2022/05/30 00:05:30;;;;;;;6.40;3.90;;;;;;;;;;5055648;28;20939;-60
2022/05/30 00:07:57;;;;;;;6.13;4.07;;;;;;;;;;5055922;28;20448;-60
2022/05/30 00:10:24;;;;;;;4.63;4.13;;;;;;;;;;5055846;28;20478;-61
2022/05/30 00:12:51;;;;;;;4.23;3.83;;;;;;;;;;5055715;28;20531;-60
2022/05/30 00:15:20;;;;;;;5.10;3.67;;;;;;;;;;5055624;28;20484;-60
2022/05/30 00:17:47;;;;;;;3.80;3.50;;;;;;;;;;5055544;28;20453;-60
2022/05/30 00:20:15;;;;;;;3.77;3.47;;;;;;;;;;5055409;28;20481;-61
2022/05/30 00:22:42;;;;;;;4.03;3.10;;;;;;;;;;5055560;28;20448;-60
2022/05/30 00:25:09;;;;;;;5.50;4.03;;;;;;;;;;5055542;28;20474;-61
2022/05/30 00:27:36;;;;;;;7.70;3.30;;;;;;;;;;5055519;28;20459;-60
2022/05/30 00:30:04;;;;;;;3.80;3.40;;;;;;;;;;5055289;28;20475;-61
2022/05/30 00:32:32;;;;;;;3.00;2.80;;;;;;;;;;5055193;28;21007;-60
2022/05/30 00:34:59;;;;;;;6.50;3.30;;;;;;;;;;5055382;28;20544;-60
2022/05/30 00:37:27;;;;;;;3.33;3.00;;;;;;;;;;5055273;28;20452;-61
2022/05/30 00:39:54;;;;;;;2.63;1.80;;;;;;;;;;5055215;28;20452;-61
2022/05/30 00:42:24;;;;;;;2.40;2.20;;;;;;;;;;5055222;28;20460;-60
2022/05/30 00:44:51;;;;;;;2.80;2.30;;;;;;;;;;5055064;28;20556;-61
2022/05/30 00:47:20;;;;;;;1.87;1.77;;;;;;;;;;5054898;28;20451;-60
2022/05/30 00:49:49;;;;;;;1.80;1.70;;;;;;;;;;5054557;28;21006;-61
2022/05/30 00:52:18;;;;;;;2.00;1.90;;;;;;;;;;5054954;28;20574;-60
2022/05/30 00:54:47;;;;;;;3.33;2.23;;;;;;;;;;5054955;28;20454;-60
2022/05/30 00:57:23;;;;;;;2.50;2.30;;;;;;;;;;5054846;28;20806;-60
2022/05/30 00:59:54;;;;;;;3.13;2.23;;;;;;;;;;5054625;28;20967;-61
2022/05/30 01:02:21;;;;;;;2.47;2.17;;;;;;;;;;5054833;28;20454;-61
2022/05/30 01:07:35;;;;;;;2.33;2.03;;;;;;;;;;5054926;28;20443;-61
2022/05/30 01:10:03;;;;;;;2.60;2.40;;;;;;;;;;5054596;28;20539;-61
2022/05/30 01:12:38;;;;;;;2.83;2.50;;;;;;;;;;5054693;28;20483;-61
2022/05/30 01:15:06;;;;;;;2.50;2.20;;;;;;;;;;5054665;28;20444;-61
2022/05/30 01:17:33;;;;;;;2.17;2.00;;;;;;;;;;5054292;28;20444;-61
2022/05/30 01:20:05;;;;;;;2.23;2.03;;;;;;;;;;5054513;28;20536;-61
2022/05/30 01:22:57;;;;;;;2.53;2.33;;;;;;;;;;5054255;28;20480;-61
2022/05/30 01:25:41;;;;;;;2.07;1.90;;;;;;;;;;5054689;28;20872;-61
2022/05/30 01:28:12;;;;;;;2.10;2.00;;;;;;;;;;5054219;28;20455;-61
2022/05/30 01:30:41;;;;;;;2.80;2.07;;;;;;;;;;5054143;28;20856;-61
2022/05/30 01:33:09;;;;;;;3.70;2.80;;;;;;;;;;5054276;28;20539;-61
2022/05/30 01:35:36;;;;;;;3.00;2.70;;;;;;;;;;5054250;28;20448;-61
2022/05/30 01:38:03;;;;;;;3.23;3.03;;;;;;;;;;5054130;28;20444;-61
2022/05/30 01:40:30;;;;;;;4.07;3.13;;;;;;;;;;5054146;28;20862;-61
2022/05/30 01:42:57;;;;;;;2.50;2.40;;;;;;;;;;5053742;28;20876;-61
2022/05/30 01:45:24;;;;;;;3.90;3.03;;;;;;;;;;5053884;28;20483;-61
2022/05/30 01:47:53;;;;;;;3.17;2.97;;;;;;;;;;5054106;28;20448;-61
2022/05/30 01:50:21;;;;;;;3.83;3.50;;;;;;;;;;5053935;28;20451;-61
2022/05/30 01:52:48;;;;;;;3.70;3.37;;;;;;;;;;5053865;28;20579;-61
2022/05/30 01:55:16;;;;;;;3.43;3.23;;;;;;;;;;5053862;28;20858;-61
2022/05/30 01:57:42;;;;;;;3.50;3.20;;;;;;;;;;5053739;28;20480;-61
2022/05/30 02:00:11;;;;;;;3.83;2.70;;;;;;;;;;5053630;28;20449;-61
2022/05/30 02:02:38;;;;;;;3.50;3.20;;;;;;;;;;5052988;28;20456;-61
2022/05/30 02:05:07;;;;;;;4.43;3.40;;;;;;;;;;5053700;28;20879;-61
2022/05/30 02:07:34;;;;;;;3.30;3.10;;;;;;;;;;5053530;28;20543;-61
2022/05/30 02:10:01;;;;;;;3.67;3.47;;;;;;;;;;5053414;28;20531;-61
2022/05/30 02:12:28;;;;;;;2.97;2.77;;;;;;;;;;5053332;28;20480;-61
2022/05/30 02:14:55;;;;;;;3.80;3.60;;;;;;;;;;5053320;28;20883;-61
2022/05/30 02:17:21;;;;;;;3.43;3.10;;;;;;;;;;5053510;28;20816;-61
2022/05/30 02:19:48;;;;;;;3.27;3.07;;;;;;;;;;5053401;28;20495;-61
2022/05/30 02:22:17;;;;;;;3.97;3.50;;;;;;;;;;5053278;28;20449;-61
2022/05/30 02:24:45;;;;;;;3.30;3.10;;;;;;;;;;5053215;28;20451;-61
2022/05/30 02:27:13;;;;;;;4.13;3.07;;;;;;;;;;5053117;28;20448;-61
2022/05/30 02:29:40;;;;;;;4.03;3.73;;;;;;;;;;5053304;28;20445;-61
2022/05/30 02:32:08;;;;;;;3.50;3.20;;;;;;;;;;5053219;28;20874;-61
2022/05/30 02:37:21;;;;;;;4.40;4.10;;;;;;;;;;5053119;28;20514;-61
2022/05/30 02:39:48;;;;;;;3.70;3.50;;;;;;;;;;5052896;28;20539;-61
2022/05/30 02:42:15;;;;;;;3.80;3.17;;;;;;;;;;5053135;28;20474;-61
2022/05/30 02:44:42;;;;;;;3.50;3.20;;;;;;;;;;5052918;28;20476;-61
2022/05/30 02:47:09;;;;;;;4.10;3.70;;;;;;;;;;5052939;28;20455;-61
2022/05/30 02:49:36;;;;;;;4.00;3.20;;;;;;;;;;5052970;28;20452;-61
2022/05/30 02:52:02;;;;;;;4.10;3.80;;;;;;;;;;5052710;28;20483;-61
2022/05/30 02:54:31;;;;;;;4.33;4.03;;;;;;;;;;5052759;28;20444;-61
2022/05/30 02:56:59;;;;;;;3.20;3.00;;;;;;;;;;5053046;28;20476;-61
2022/05/30 02:59:26;;;;;;;3.97;3.60;;;;;;;;;;5052900;28;20535;-61
2022/05/30 03:01:53;;;;;;;4.10;3.80;;;;;;;;;;5053049;28;20538;-61
2022/05/30 03:04:20;;;;;;;3.70;3.40;;;;;;;;;;5052772;28;20869;-61
2022/05/30 03:06:48;;;;;;;3.47;3.27;;;;;;;;;;5052785;28;20518;-61
2022/05/30 03:09:15;;;;;;;3.63;3.33;;;;;;;;;;5052993;28;20423;-61
2022/05/30 03:11:43;;;;;;;3.60;2.83;;;;;;;;;;5052805;28;20908;-61
2022/05/30 03:14:10;;;;;;;3.07;2.87;;;;;;;;;;5055084;28;20452;-61
2022/05/30 03:16:37;;;;;;;4.03;3.63;;;;;;;;;;5056778;28;20827;-61
2022/05/30 03:19:04;;;;;;;4.30;3.80;;;;;;;;;;5056672;28;20452;-61
2022/05/30 03:21:31;;;;;;;4.23;3.73;;;;;;;;;;5056452;28;20460;-61
2022/05/30 03:23:59;;;;;;;3.90;3.53;;;;;;;;;;5056705;28;20422;-61
2022/05/30 03:26:26;;;;;;;3.30;3.00;;;;;;;;;;5056471;28;20951;-61
2022/05/30 03:28:54;;;;;;;3.87;3.60;;;;;;;;;;5056795;28;20444;-61
2022/05/30 03:31:21;;;;;;;6.23;3.37;;;;;;;;;;5056441;28;20494;-61
2022/05/30 03:33:48;;;;;;;4.10;3.70;;;;;;;;;;5056259;28;20981;-61
2022/05/30 03:36:16;;;;;;;3.57;3.27;;;;;;;;;;5056286;28;20507;-61
2022/05/30 03:38:43;;;;;;;3.90;3.50;;;;;;;;;;5056414;28;20812;-61
2022/05/30 03:41:10;;;;;;;3.63;3.40;;;;;;;;;;5056325;28;20894;-61
2022/05/30 03:43:37;;;;;;;6.03;3.83;;;;;;;;;;5056067;28;20894;-61
2022/05/30 03:46:05;;;;;;;4.10;3.70;;;;;;;;;;5056178;28;20618;-61
2022/05/30 03:48:32;;;;;;;3.40;3.10;;;;;;;;;;5056310;28;20448;-61
2022/05/30 03:51:01;;;;;;;4.47;4.07;;;;;;;;;;5056298;28;20433;-61
2022/05/30 03:53:28;;;;;;;3.73;3.43;;;;;;;;;;5056023;28;20525;-61
2022/05/30 03:55:55;;;;;;;3.70;3.20;;;;;;;;;;5056104;28;20884;-62
2022/05/30 03:58:22;;;;;;;4.93;4.43;;;;;;;;;;5056033;28;20487;-61
2022/05/30 04:00:49;;;;;;;3.93;3.63;;;;;;;;;;5056146;28;20479;-62
2022/05/30 04:03:17;;;;;;;4.77;2.90;;;;;;;;;;5055754;28;21023;-62
2022/05/30 04:05:44;;;;;;;3.33;3.03;;;;;;;;;;5055942;28;20455;-61
2022/05/30 04:08:11;;;;;;;4.03;3.73;;;;;;;;;;5055862;28;20487;-61
2022/05/30 04:10:38;;;;;;;3.80;3.50;;;;;;;;;;5055631;28;20491;-61
2022/05/30 04:13:07;;;;;;;4.10;3.80;;;;;;;;;;5055559;28;20570;-61
2022/05/30 04:15:34;;;;;;;5.90;4.10;;;;;;;;;;5055434;28;20449;-61
2022/05/30 04:18:01;;;;;;;4.37;3.97;;;;;;;;;;5055713;28;20604;-61
2022/05/30 04:20:29;;;;;;;4.43;3.70;;;;;;;;;;5055559;28;20531;-61
2022/05/30 04:22:56;;;;;;;4.30;3.93;;;;;;;;;;5055500;28;20817;-61
2022/05/30 04:25:23;;;;;;;3.60;3.40;;;;;;;;;;5054775;28;20464;-61
2022/05/30 04:27:50;;;;;;;4.30;3.97;;;;;;;;;;5055364;28;20456;-61
2022/05/30 04:30:17;;;;;;;4.10;3.80;;;;;;;;;;5055507;28;20531;-61
2022/05/30 04:32:45;;;;;;;5.00;4.50;;;;;;;;;;5055405;28;20890;-61
2022/05/30 04:35:12;;;;;;;4.63;4.33;;;;;;;;;;5055371;28;20921;-61
2022/05/30 04:37:40;;;;;;;5.10;4.70;;;;;;;;;;5055168;28;20577;-61
2022/05/30 04:40:08;;;;;;;4.60;4.20;;;;;;;;;;5055156;28;20459;-61
2022/05/30 04:42:35;;;;;;;6.60;6.03;;;;;;;;;;5055553;28;20457;-61
2022/05/30 04:45:02;;;;;;;5.70;4.60;;;;;;;;;;5054813;28;20476;-61
2022/05/30 04:47:29;;;;;;;5.00;4.60;;;;;;;;;;5055079;28;20453;-61
2022/05/30 04:49:56;;;;;;;6.43;5.27;;;;;;;;;;5054987;28;20890;-61
2022/05/30 04:52:23;;;;;;;7.90;5.90;;;;;;;;;;5054785;28;20566;-61
2022/05/30 04:54:51;;;;;;;7.90;6.00;;;;;;;;;;5054675;28;20452;-61
2022/05/30 04:57:18;;;;;;;6.00;5.50;;;;;;;;;;5054734;28;20445;-61
2022/05/30 04:59:45;;;;;;;6.33;5.70;;;;;;;;;;5054860;28;20459;-61
2022/05/30 05:02:12;;;;;;;7.37;6.73;;;;;;;;;;5054718;28;21176;-61
2022/05/30 05:04:39;;;;;;;6.57;6.07;;;;;;;;;;5054693;28;20811;-61
2022/05/30 05:07:07;;;;;;;6.30;5.80;;;;;;;;;;5054720;28;20459;-61
2022/05/30 05:09:41;;;;;;;7.07;6.37;;;;;;;;;;5054455;28;20470;-61
2022/05/30 05:12:09;;;;;;;6.23;5.70;;;;;;;;;;5054410;28;20475;-61
2022/05/30 05:14:36;;;;;;;5.63;5.23;;;;;;;;;;5054670;28;20513;-61
2022/05/30 05:17:04;;;;;;;7.33;5.40;;;;;;;;;;5054523;28;20498;-61
2022/05/30 05:19:32;;;;;;;6.13;5.63;;;;;;;;;;5054405;28;20455;-61
2022/05/30 05:21:59;;;;;;;7.40;5.50;;;;;;;;;;5054276;28;20971;-61
2022/05/30 05:24:27;;;;;;;6.03;5.53;;;;;;;;;;5054495;28;20547;-61
2022/05/30 05:26:54;;;;;;;7.97;6.57;;;;;;;;;;5054271;28;20527;-61
2022/05/30 05:29:22;;;;;;;6.60;5.70;;;;;;;;;;5054226;28;20543;-61
2022/05/30 05:31:49;;;;;;;6.00;4.37;;;;;;;;;;5053931;28;20541;-61
2022/05/30 05:34:17;;;;;;;5.83;4.57;;;;;;;;;;5054021;28;20535;-61
2022/05/30 05:36:46;;;;;;;5.30;4.87;;;;;;;;;;5052934;28;20480;-61
2022/05/30 05:39:14;;;;;;;4.93;4.37;;;;;;;;;;5054136;28;20842;-61
2022/05/30 05:41:41;;;;;;;4.63;4.13;;;;;;;;;;5053994;28;20546;-61
2022/05/30 05:44:08;;;;;;;4.87;3.57;;;;;;;;;;5053680;28;20563;-62
2022/05/30 05:46:37;;;;;;;7.40;4.10;;;;;;;;;;5053757;28;20534;-62
2022/05/30 05:49:04;;;;;;;11.63;4.37;;;;;;;;;;5053746;28;20523;-61
2022/05/30 05:51:31;;;;;;;5.17;4.63;;;;;;;;;;5053645;28;20449;-62
2022/05/30 05:53:58;;;;;;;4.80;4.40;;;;;;;;;;5053741;28;20484;-61
2022/05/30 05:56:26;;;;;;;7.07;4.60;;;;;;;;;;5053707;28;20444;-61
2022/05/30 05:58:53;;;;;;;7.13;3.50;;;;;;;;;;5053712;28;20539;-61
2022/05/30 06:01:21;;;;;;;7.63;4.90;;;;;;;;;;5053080;28;20812;-61
2022/05/30 06:03:52;;;;;;;4.50;4.03;;;;;;;;;;5053231;28;20539;-61
2022/05/30 06:06:19;;;;;;;3.93;3.53;;;;;;;;;;5053604;28;20547;-61
2022/05/30 06:08:46;;;;;;;5.33;4.13;;;;;;;;;;5053267;28;20527;-61
2022/05/30 06:11:13;;;;;;;6.83;3.70;;;;;;;;;;5053388;28;20448;-61
2022/05/30 06:13:41;;;;;;;3.63;3.30;;;;;;;;;;5052967;28;20542;-61
2022/05/30 06:16:09;;;;;;;3.90;3.60;;;;;;;;;;5053126;28;20880;-61
2022/05/30 06:18:36;;;;;;;4.53;3.50;;;;;;;;;;5052964;28;20455;-61
2022/05/30 06:21:05;;;;;;;3.37;2.77;;;;;;;;;;5053019;28;21015;-61
2022/05/30 06:23:32;;;;;;;3.70;2.87;;;;;;;;;;5053068;28;20539;-61
2022/05/30 06:26:01;;;;;;;2.73;2.53;;;;;;;;;;5053125;28;20456;-61
2022/05/30 06:28:29;;;;;;;3.30;3.00;;;;;;;;;;5053041;28;20486;-61
2022/05/30 06:30:56;;;;;;;5.00;2.40;;;;;;;;;;5052784;28;20470;-61
2022/05/30 06:33:23;;;;;;;7.33;3.40;;;;;;;;;;5053023;28;20571;-62
2022/05/30 06:35:50;;;;;;;5.60;2.90;;;;;;;;;;5053011;28;20486;-62
2022/05/30 06:38:20;;;;;;;9.43;2.97;;;;;;;;;;5052985;28;20448;-62
2022/05/30 06:40:47;;;;;;;4.40;3.33;;;;;;;;;;5052785;28;20948;-62
2022/05/30 06:43:14;;;;;;;5.30;3.60;;;;;;;;;;5052755;28;20476;-61
2022/05/30 06:45:40;;;;;;;6.03;2.77;;;;;;;;;;5052785;28;20453;-62
2022/05/30 06:48:08;;;;;;;8.20;3.23;;;;;;;;;;5052635;28;20612;-62
2022/05/30 06:50:35;;;;;;;4.80;2.60;;;;;;;;;;5053234;28;20534;-62
2022/05/30 06:53:02;;;;;;;5.90;2.67;;;;;;;;;;5052633;28;20471;-62
2022/05/30 06:55:32;;;;;;;5.70;2.70;;;;;;;;;;5052910;28;20542;-62
2022/05/30 06:58:14;;;;;;;7.40;2.97;;;;;;;;;;5053189;28;20543;-61
2022/05/30 07:00:41;;;;;;;3.47;2.43;;;;;;;;;;5052646;28;20543;-62
2022/05/30 07:03:08;;;;;;;5.00;2.60;;;;;;;;;;5052863;28;20467;-62
2022/05/30 07:05:35;;;;;;;4.87;2.57;;;;;;;;;;5052751;28;20815;-62
2022/05/30 07:08:02;;;;;;;12.83;3.50;;;;;;;;;;5052932;28;20454;-61
2022/05/30 07:10:31;;;;;;;11.53;3.60;;;;;;;;;;5052514;28;20544;-62
2022/05/30 07:12:58;;;;;;;5.07;3.00;;;;;;;;;;5052965;28;20491;-62
2022/05/30 07:15:25;;;;;;;19.53;12.20;;;;;;;;;;5052608;28;20449;-62
2022/05/30 07:17:53;;;;;;;8.47;2.80;;;;;;;;;;5052603;28;20448;-62
2022/05/30 07:20:20;;;;;;;7.13;2.67;;;;;;;;;;5052405;28;20951;-62
2022/05/30 07:22:47;;;;;;;9.47;3.50;;;;;;;;;;5052315;28;20547;-62
2022/05/30 07:25:14;;;;;;;3.67;2.40;;;;;;;;;;5052189;28;20449;-59
2022/05/30 07:27:42;;;;;;;3.37;2.37;;;;;;;;;;5052396;28;20537;-63
2022/05/30 07:30:10;;;;;;;4.20;2.33;;;;;;;;;;5052592;28;20543;-61
2022/05/30 07:32:37;;;;;;;4.53;2.63;;;;;;;;;;5052326;28;20474;-59
2022/05/30 07:35:04;;;;;;;9.50;2.30;;;;;;;;;;5052386;28;20539;-62
2022/05/30 07:37:31;;;;;;;2.23;1.87;;;;;;;;;;5051806;28;20448;-61
2022/05/30 07:39:58;;;;;;;5.30;2.60;;;;;;;;;;5052224;28;20459;-60
2022/05/30 07:42:25;;;;;;;3.07;2.20;;;;;;;;;;5052397;28;20539;-63
2022/05/30 07:44:53;;;;;;;5.10;2.30;;;;;;;;;;5052158;28;20482;-61
2022/05/30 07:47:21;;;;;;;5.90;2.27;;;;;;;;;;5052484;28;20448;-61
2022/05/30 07:49:48;;;;;;;4.50;2.07;;;;;;;;;;5052273;28;20884;-58
2022/05/30 07:52:15;;;;;;;3.70;2.00;;;;;;;;;;5052410;28;20483;-64
2022/05/30 07:54:43;;;;;;;4.13;2.20;;;;;;;;;;5052623;28;20484;-62
2022/05/30 07:57:10;;;;;;;3.23;1.80;;;;;;;;;;5052346;28;20859;-60
2022/05/30 07:59:37;;;;;;;3.20;1.70;;;;;;;;;;5052202;28;20453;-58
2022/05/30 08:02:06;;;;;;;5.90;2.37;;;;;;;;;;5055700;28;20534;-59
2022/05/30 08:04:33;;;;;;;4.47;1.80;;;;;;;;;;5055600;28;20539;-60
2022/05/30 08:07:00;;;;;;;7.10;1.87;;;;;;;;;;5055693;28;20807;-65
2022/05/30 08:09:27;;;;;;;3.33;2.10;;;;;;;;;;5055543;28;20462;-61
2022/05/30 08:11:54;;;;;;;6.10;2.13;;;;;;;;;;5055763;28;20543;-61
2022/05/30 08:14:21;;;;;;;6.17;2.30;;;;;;;;;;5055464;28;20490;-59
2022/05/30 08:16:48;;;;;;;6.93;2.67;;;;;;;;;;5055425;28;20480;-65
2022/05/30 08:19:16;;;;;;;8.43;2.20;;;;;;;;;;5055428;28;20539;-61
2022/05/30 08:21:43;;;;;;;4.13;2.20;;;;;;;;;;5055595;28;20483;-63
2022/05/30 08:24:10;;;;;;;3.80;2.50;;;;;;;;;;5055475;28;20811;-66
2022/05/30 08:26:37;;;;;;;3.57;1.87;;;;;;;;;;5055374;28;20861;-61
2022/05/30 08:29:04;;;;;;;2.33;1.50;;;;;;;;;;5055350;28;20444;-62
2022/05/30 08:31:31;;;;;;;5.50;1.80;;;;;;;;;;5055066;28;20932;-61
2022/05/30 08:33:58;;;;;;;6.87;2.27;;;;;;;;;;5055203;28;20563;-61
2022/05/30 08:36:26;;;;;;;4.73;1.70;;;;;;;;;;5055321;28;20448;-61
2022/05/30 08:41:46;;;;;;;3.53;1.63;;;;;;;;;;5055203;28;20484;-61
2022/05/30 08:41:49;;;;;;;3.20;2.10;;;;;;;;;;5055168;28;20448;-60
2022/05/30 08:44:17;;;;;;;2.50;2.30;;;;;;;;;;5054865;28;20578;-61
2022/05/30 08:46:49;;;;;;;1.90;1.50;;;;;;;;;;5055254;28;20448;-64
2022/05/30 08:49:21;;;;;;;3.47;2.73;;;;;;;;;;5055166;28;20800;-61
2022/05/30 08:52:10;;;;;;;4.07;1.90;;;;;;;;;;5055024;28;20455;-64
2022/05/30 08:54:41;;;;;;;5.43;2.03;;;;;;;;;;5054732;28;20839;-60
2022/05/30 08:57:10;;;;;;;5.60;2.57;;;;;;;;;;5054833;28;20453;-60
2022/05/30 08:59:54;;;;;;;3.70;2.37;;;;;;;;;;5054864;28;20543;-58
2022/05/30 09:02:24;;;;;;;4.90;2.30;;;;;;;;;;5054797;28;20489;-58
2022/05/30 09:04:53;;;;;;;9.90;2.80;;;;;;;;;;5054268;28;21026;-59
2022/05/30 09:07:23;;;;;;;3.00;1.90;;;;;;;;;;5054373;28;20649;-63
2022/05/30 09:09:51;;;;;;;7.60;2.37;;;;;;;;;;5054773;28;20448;-61
2022/05/30 09:12:20;;;;;;;5.33;2.33;;;;;;;;;;5054294;28;20447;-60
2022/05/30 09:14:50;;;;;;;5.27;2.10;;;;;;;;;;5054319;28;20567;-61
2022/05/30 09:17:19;;;;;;;5.57;2.30;;;;;;;;;;5048236;28;20535;-61
2022/05/30 09:19:46;;;;;;;8.50;2.10;;;;;;;;;;5046632;28;20512;-62
2022/05/30 09:22:14;;;;;;;4.83;2.50;;;;;;;;;;5065118;28;20466;-61
2022/05/30 09:25:55;;;;;;;6.20;2.47;;;;;;;;;;5059291;28;20527;-61
2022/05/30 09:27:31;;;;;;;6.20;2.30;;;;;;;;;;5053835;28;20444;-61
2022/05/30 09:30:00;;;;;;;3.33;1.77;;;;;;;;;;5040710;28;20541;-61
2022/05/30 09:32:31;;;;;;;3.93;2.30;;;;;;;;;;5034855;28;20450;-59
2022/05/30 09:35:18;;;;;;;4.40;2.07;;;;;;;;;;5034330;28;20485;-61
2022/05/30 09:37:46;;;;;;;2.70;2.10;;;;;;;;;;5034219;28;20453;-61
2022/05/30 09:40:14;;;;;;;5.90;1.80;;;;;;;;;;5034063;28;20488;-61
2022/05/30 09:42:49;;;;;;;4.60;2.00;;;;;;;;;;5033978;28;20456;-61
2022/05/30 09:45:25;;;;;;;5.10;2.40;;;;;;;;;;5034187;28;20935;-61
2022/05/30 09:47:59;;;;;;;6.60;2.00;;;;;;;;;;5033790;28;20455;-58
2022/05/30 09:50:26;;;;;;;3.50;1.93;;;;;;;;;;5033715;28;20884;-61
2022/05/30 09:52:55;;;;;;;2.93;2.10;;;;;;;;;;5033797;28;20449;-61
2022/05/30 09:55:25;;;;;;;9.73;2.50;;;;;;;;;;5033458;28;20572;-61
2022/05/30 09:57:52;;;;;;;4.57;1.80;;;;;;;;;;5033820;28;20492;-61
2022/05/30 10:00:21;;;;;;;1.97;1.73;;;;;;;;;;5033845;28;20460;-59
2022/05/30 10:02:58;;;;;;;3.03;1.70;;;;;;;;;;5033410;28;20888;-60
2022/05/30 10:05:27;;;;;;;4.03;1.77;;;;;;;;;;5033553;28;20453;-61
2022/05/30 10:07:56;;;;;;;2.13;1.93;;;;;;;;;;5033753;28;20460;-58
2022/05/30 10:10:24;;;;;;;2.50;1.70;;;;;;;;;;5033362;28;20449;-61
2022/05/30 10:12:54;;;;;;;3.23;1.87;;;;;;;;;;5033597;28;20507;-62
2022/05/30 10:15:23;;;;;;;1.57;1.47;;;;;;;;;;5033361;28;20906;-62
2022/05/30 10:17:51;;;;;;;2.70;1.40;;;;;;;;;;5033253;28;20456;-61
2022/05/30 10:20:23;;;;;;;3.60;1.90;;;;;;;;;;5033190;28;20541;-59
2022/05/30 10:28:46;;;;;;;3.20;1.73;;;;;;;;;;5033096;28;20443;-58
2022/05/30 10:31:17;;;;;;;3.43;1.50;;;;;;;;;;5033284;28;20449;-58
2022/05/30 10:33:57;;;;;;;3.50;1.17;;;;;;;;;;5033126;28;20568;-51
2022/05/30 10:36:26;;;;;;;2.53;1.30;;;;;;;;;;5033296;28;20453;-64
2022/05/30 10:39:01;;;;;;;2.53;1.33;;;;;;;;;;5033019;28;20536;-63
2022/05/30 10:41:32;;;;;;;3.70;1.30;;;;;;;;;;5032989;28;20448;-60
2022/05/30 10:44:01;;;;;;;2.00;1.00;;;;;;;;;;5032802;28;20516;-60
2022/05/30 10:46:33;;;;;;;1.50;0.90;;;;;;;;;;5032893;28;20453;-60
2022/05/30 10:49:01;;;;;;;1.90;1.53;;;;;;;;;;5032681;28;20532;-61
2022/05/30 10:51:31;;;;;;;2.20;1.13;;;;;;;;;;5032749;28;20480;-61
2022/05/30 10:54:01;;;;;;;2.27;1.23;;;;;;;;;;5032895;28;20477;-61
2022/05/30 10:56:30;;;;;;;1.67;1.23;;;;;;;;;;5032538;28;20540;-60
2022/05/30 10:59:00;;;;;;;2.03;0.90;;;;;;;;;;5033066;28;20540;-63
2022/05/30 11:01:32;;;;;;;4.23;3.27;;;;;;;;;;5032232;28;20536;-55
2022/05/30 11:04:07;;;;;;;4.37;1.20;;;;;;;;;;5032215;28;20460;-56
2022/05/30 11:06:37;;;;;;;1.53;0.93;;;;;;;;;;5032689;28;20914;-56
2022/05/30 11:09:07;;;;;;;2.10;1.10;;;;;;;;;;5032844;28;20485;-57
2022/05/30 11:11:38;;;;;;;2.17;1.10;;;;;;;;;;5032657;28;20545;-57
2022/05/30 11:14:11;;;;;;;2.80;1.40;;;;;;;;;;5032863;28;20499;-58
2022/05/30 11:16:41;;;;;;;1.60;0.97;;;;;;;;;;5032912;28;20884;-61
2022/05/30 11:19:10;;;;;;;2.80;1.00;;;;;;;;;;5032788;28;20539;-62
2022/05/30 11:21:42;;;;;;;1.80;1.03;;;;;;;;;;5032634;28;20544;-61
2022/05/30 11:24:10;;;;;;;3.40;1.23;;;;;;;;;;5032683;28;20449;-61
2022/05/30 11:26:50;;;;;;;1.90;1.07;;;;;;;;;;5032673;28;20445;-62
2022/05/30 11:29:24;;;;;;;1.73;1.30;;;;;;;;;;5032351;28;20536;-61
2022/05/30 11:31:56;;;;;;;1.80;0.93;;;;;;;;;;5032488;28;20540;-62
2022/05/30 11:34:30;;;;;;;1.47;1.10;;;;;;;;;;5033372;28;20481;-62
2022/05/30 11:37:08;;;;;;;1.93;1.10;;;;;;;;;;5036270;28;20457;-55
2022/05/30 11:39:47;;;;;;;4.23;1.70;;;;;;;;;;5036777;28;20536;-54
2022/05/30 11:42:22;;;;;;;1.53;1.10;;;;;;;;;;5036357;28;20540;-54
2022/05/30 11:44:50;;;;;;;1.30;1.00;;;;;;;;;;5036219;28;20902;-53
2022/05/30 11:47:30;;;;;;;1.10;1.00;;;;;;;;;;5036280;28;20495;-55
2022/05/30 11:50:03;;;;;;;1.53;0.93;;;;;;;;;;5036144;28;20485;-61
2022/05/30 11:52:35;;;;;;;1.50;1.00;;;;;;;;;;5035937;28;20539;-57
2022/05/30 11:55:10;;;;;;;2.10;0.90;;;;;;;;;;5035931;28;20484;-59
2022/05/30 11:57:42;;;;;;;1.20;0.90;;;;;;;;;;5035940;28;20453;-59
2022/05/30 12:00:23;;;;;;;1.43;1.17;;;;;;;;;;5035602;28;20907;-58
2022/05/30 12:02:58;;;;;;;2.00;1.30;;;;;;;;;;5035980;28;20503;-58
2022/05/30 12:05:58;;;;;;;1.70;1.07;;;;;;;;;;5035975;28;20859;-59
2022/05/30 12:08:42;;;;;;;3.57;1.20;;;;;;;;;;4993942;28;20451;-59
2022/05/30 12:11:30;;;;;;;1.87;1.00;;;;;;;;;;4994094;28;20881;-59
2022/05/30 12:14:05;;;;;;;3.50;0.97;;;;;;;;;;5023216;28;20451;-59
2022/05/30 12:16:41;;;;;;;1.87;1.00;;;;;;;;;;5035519;28;20600;-59
2022/05/30 12:24:49;;;;;;;1.47;1.30;;;;;;;;;;5035309;28;20437;-59
2022/05/30 12:27:34;;;;;;;2.23;0.90;;;;;;;;;;5035351;28;20460;-59
2022/05/30 12:30:04;;;;;;;6.87;1.23;;;;;;;;;;5035507;28;20449;-59
2022/05/30 12:32:36;;;;;;;1.30;1.20;;;;;;;;;;5035294;28;20459;-59
2022/05/30 12:35:11;;;;;;;1.40;0.90;;;;;;;;;;5035306;28;20520;-59
2022/05/30 12:37:45;;;;;;;3.77;1.00;;;;;;;;;;5035118;28;20456;-66
2022/05/30 12:40:14;;;;;;;2.90;0.90;;;;;;;;;;5035187;28;20446;-61
2022/05/30 12:42:43;;;;;;;2.80;1.50;;;;;;;;;;5034974;28;20449;-63
2022/05/30 12:45:17;;;;;;;1.20;1.07;;;;;;;;;;5034957;28;20445;-60
2022/05/30 12:47:50;;;;;;;4.20;1.40;;;;;;;;;;5034361;28;20543;-59
2022/05/30 12:50:37;;;;;;;1.93;0.90;;;;;;;;;;5034824;28;20437;-60
2022/05/30 12:53:06;;;;;;;1.87;1.27;;;;;;;;;;5034764;28;20475;-60
2022/05/30 12:55:35;;;;;;;1.63;1.10;;;;;;;;;;5034822;28;20492;-60
2022/05/30 12:58:02;;;;;;;3.53;1.20;;;;;;;;;;5034640;28;20540;-60
2022/05/30 13:00:50;;;;;;;2.03;1.33;;;;;;;;;;5034644;28;20883;-60
2022/05/30 13:03:35;;;;;;;2.00;1.90;;;;;;;;;;5034885;28;20936;-60
2022/05/30 13:06:10;;;;;;;2.57;1.23;;;;;;;;;;5035036;28;20445;-60
2022/05/30 13:09:01;;;;;;;1.97;0.90;;;;;;;;;;5034719;28;20449;-60
2022/05/30 13:11:42;;;;;;;2.37;1.33;;;;;;;;;;5024524;28;20528;-60
2022/05/30 13:14:15;;;;;;;3.40;1.43;;;;;;;;;;5034548;28;20800;-60
2022/05/30 13:16:43;;;;;;;2.77;1.33;;;;;;;;;;5034399;28;20453;-60
2022/05/30 13:19:12;;;;;;;1.73;1.20;;;;;;;;;;5034361;28;20508;-60
2022/05/30 13:21:42;;;;;;;2.17;1.23;;;;;;;;;;5034629;28;20809;-60
2022/05/30 13:24:24;;;;;;;1.93;1.27;;;;;;;;;;5034628;28;20813;-60
2022/05/30 13:26:51;;;;;;;4.20;1.67;;;;;;;;;;5034287;28;20902;-60
2022/05/30 13:29:18;;;;;;;2.77;1.03;;;;;;;;;;5034232;28;20532;-60
2022/05/30 13:31:49;;;;;;;1.70;0.90;;;;;;;;;;5034022;28;20874;-60
2022/05/30 13:34:17;;;;;;;2.73;1.10;;;;;;;;;;5034148;28;20449;-60
2022/05/30 13:36:45;;;;;;;3.10;1.37;;;;;;;;;;5034126;28;20544;-60
2022/05/30 13:39:12;;;;;;;2.83;2.00;;;;;;;;;;5033988;28;20544;-60
2022/05/30 13:41:40;;;;;;;3.67;1.50;;;;;;;;;;5033939;28;20804;-60
2022/05/30 13:44:10;;;;;;;1.40;1.20;;;;;;;;;;5033638;28;20560;-60
2022/05/30 13:46:41;;;;;;;3.67;1.13;;;;;;;;;;5034029;28;20449;-60
2022/05/30 13:49:08;;;;;;;3.77;2.93;;;;;;;;;;5033957;28;20859;-60
2022/05/30 13:51:36;;;;;;;2.03;1.93;;;;;;;;;;5033889;28;21027;-60
2022/05/30 13:54:05;;;;;;;2.10;1.07;;;;;;;;;;5033848;28;20983;-60
2022/05/30 13:56:34;;;;;;;2.37;1.63;;;;;;;;;;5033921;28;20576;-60
2022/05/30 13:59:03;;;;;;;2.20;1.70;;;;;;;;;;5032743;28;20881;-60
2022/05/30 14:01:33;;;;;;;1.77;1.60;;;;;;;;;;5033736;28;20445;-60
2022/05/30 14:04:02;;;;;;;1.90;1.00;;;;;;;;;;5033622;28;20856;-60
2022/05/30 14:06:31;;;;;;;4.60;1.17;;;;;;;;;;5033483;28;20485;-60
2022/05/30 14:08:58;;;;;;;1.80;1.00;;;;;;;;;;5033380;28;20456;-60
2022/05/30 14:11:27;;;;;;;1.77;0.93;;;;;;;;;;5033308;28;20576;-60
2022/05/30 14:13:55;;;;;;;2.67;1.10;;;;;;;;;;5033633;28;20545;-60
2022/05/30 14:16:33;;;;;;;1.73;1.03;;;;;;;;;;5033373;28;20485;-60
2022/05/30 14:19:03;;;;;;;2.90;1.40;;;;;;;;;;5033499;28;20533;-60
2022/05/30 14:21:30;;;;;;;1.70;1.50;;;;;;;;;;5033486;28;20526;-60
2022/05/30 14:24:13;;;;;;;1.07;0.90;;;;;;;;;;5033182;28;20953;-60
2022/05/30 14:26:42;;;;;;;1.63;1.20;;;;;;;;;;5033436;28;20457;-60
2022/05/30 14:29:10;;;;;;;2.00;1.17;;;;;;;;;;5033365;28;20453;-60
2022/05/30 14:31:39;;;;;;;4.43;1.33;;;;;;;;;;5033138;28;20544;-60
2022/05/30 14:34:13;;;;;;;1.57;0.93;;;;;;;;;;5033127;28;20466;-60
2022/05/30 14:36:42;;;;;;;2.30;1.13;;;;;;;;;;5033241;28;20882;-60
2022/05/30 14:39:14;;;;;;;2.90;1.37;;;;;;;;;;5033229;28;20502;-60
2022/05/30 14:41:52;;;;;;;2.03;1.00;;;;;;;;;;5033195;28;20449;-60
2022/05/30 14:44:20;;;;;;;1.47;1.03;;;;;;;;;;5032919;28;20564;-60
2022/05/30 14:46:47;;;;;;;1.20;0.83;;;;;;;;;;5032973;28;20790;-60
2022/05/30 14:49:15;;;;;;;1.30;1.10;;;;;;;;;;5033212;28;20536;-60
2022/05/30 14:51:51;;;;;;;2.23;1.00;;;;;;;;;;5033053;28;20449;-60
2022/05/30 14:54:26;;;;;;;0.90;0.90;;;;;;;;;;5033057;28;20496;-60
2022/05/30 14:56:54;;;;;;;2.50;1.10;;;;;;;;;;5032862;28;20490;-60
2022/05/30 14:59:33;;;;;;;1.73;0.90;;;;;;;;;;5032778;28;20454;-60
2022/05/30 15:01:59;;;;;;;3.00;1.10;;;;;;;;;;5032938;28;20449;-60
2022/05/30 15:04:26;;;;;;;2.63;1.20;;;;;;;;;;5032894;28;20520;-60
2022/05/30 15:06:56;;;;;;;3.83;1.20;;;;;;;;;;5032949;28;20458;-60
2022/05/30 15:09:24;;;;;;;1.53;0.93;;;;;;;;;;5033783;28;20444;-60
2022/05/30 15:11:51;;;;;;;4.40;1.20;;;;;;;;;;5036711;28;20919;-60
2022/05/30 15:14:21;;;;;;;1.50;1.20;;;;;;;;;;5036849;28;20445;-60